createdAt,value
2019-01-30T17:50:46.779Z,24.36
2019-01-30T17:50:47.944Z,24.35
2019-01-30T17:50:49.133Z,24.36
2019-01-30T17:50:50.308Z,24.32
2019-01-30T17:50:51.482Z,24.34
2019-01-30T17:50:52.657Z,24.32
2019-01-30T17:50:53.830Z,24.34
2019-01-30T17:50:55.011Z,24.31
2019-01-30T17:50:56.183Z,24.32
2019-01-30T17:50:57.354Z,24.32
2019-01-30T17:50:58.525Z,24.32
2019-01-30T17:50:59.695Z,24.31
2019-01-30T17:51:00.872Z,24.32
2019-01-30T17:51:02.046Z,24.32
2019-01-30T17:51:03.225Z,24.29
2019-01-30T17:51:04.402Z,24.29
2019-01-30T17:51:05.580Z,24.29
2019-01-30T17:51:06.758Z,24.32
2019-01-30T17:51:07.933Z,24.31
2019-01-30T17:51:09.120Z,24.31
2019-01-30T17:51:10.309Z,24.29
2019-01-30T17:51:11.484Z,24.31
2019-01-30T17:51:12.666Z,24.28
2019-01-30T17:51:13.840Z,24.28
2019-01-30T17:51:15.010Z,24.28
2019-01-30T17:51:16.185Z,24.26
2019-01-30T17:51:17.355Z,24.28
2019-01-30T17:51:18.529Z,24.25
2019-01-30T17:51:19.709Z,24.26
2019-01-30T17:51:20.892Z,24.28
2019-01-30T17:51:22.085Z,24.25
2019-01-30T17:51:23.317Z,24.25
2019-01-30T17:51:24.490Z,24.25
2019-01-30T17:51:25.663Z,24.28
2019-01-30T17:51:26.839Z,24.25
2019-01-30T17:51:28.014Z,24.26
2019-01-30T17:51:29.198Z,24.25
2019-01-30T17:51:30.379Z,24.26
2019-01-30T17:51:31.553Z,24.25
2019-01-30T17:51:32.729Z,24.23
2019-01-30T17:51:33.902Z,24.26
2019-01-30T17:51:35.078Z,24.23
2019-01-30T17:51:36.256Z,24.23
2019-01-30T17:51:37.434Z,24.23
2019-01-30T17:51:38.607Z,24.23
2019-01-30T17:51:39.787Z,24.25
2019-01-30T17:51:42.878Z,24.23
2019-01-30T17:51:44.258Z,24.22
2019-01-30T17:51:45.432Z,24.22
2019-01-30T17:51:46.606Z,24.23
2019-01-30T17:51:47.780Z,24.25
2019-01-30T17:51:48.962Z,24.25
2019-01-30T17:51:50.137Z,24.23
2019-01-30T17:51:51.321Z,24.26
2019-01-30T17:51:52.494Z,24.38
2019-01-30T17:51:53.669Z,24.70
2019-01-30T17:51:54.848Z,25.07
2019-01-30T17:51:56.019Z,25.57
2019-01-30T17:51:57.196Z,25.87
2019-01-30T17:51:58.379Z,26.18
2019-01-30T17:51:59.563Z,26.35
2019-01-30T17:52:00.750Z,26.58
2019-01-30T17:52:01.933Z,26.68
2019-01-30T17:52:03.113Z,26.68
2019-01-30T17:52:04.294Z,26.62
2019-01-30T17:52:05.476Z,26.62
2019-01-30T17:52:06.675Z,26.56
2019-01-30T17:52:07.853Z,26.49
2019-01-30T17:52:09.041Z,26.46
2019-01-30T17:52:10.228Z,26.42
2019-01-30T17:52:11.406Z,26.42
2019-01-30T17:52:12.580Z,26.38
2019-01-30T17:52:13.756Z,26.38
2019-01-30T17:52:14.934Z,26.34
2019-01-30T17:52:16.240Z,26.42
2019-01-30T17:52:17.421Z,26.42
2019-01-30T17:52:18.614Z,26.26
2019-01-30T17:52:19.784Z,26.18
2019-01-30T17:52:20.957Z,26.11
2019-01-30T17:52:22.132Z,26.06
2019-01-30T17:52:23.305Z,25.98
2019-01-30T17:52:24.484Z,25.95
2019-01-30T17:52:25.667Z,25.92
2019-01-30T17:52:26.838Z,25.84
2019-01-30T17:52:28.014Z,25.81
2019-01-30T17:52:29.186Z,25.80
2019-01-30T17:52:30.360Z,25.83
2019-01-30T17:52:31.532Z,25.81
2019-01-30T17:52:32.733Z,25.81
2019-01-30T17:52:33.955Z,25.78
2019-01-30T17:52:35.129Z,25.77
2019-01-30T17:52:36.323Z,25.77
2019-01-30T17:52:37.501Z,25.73
2019-01-30T17:52:38.683Z,25.70
2019-01-30T17:52:39.859Z,25.71
2019-01-30T17:52:41.032Z,25.65
2019-01-30T17:52:42.205Z,25.58
2019-01-30T17:52:43.375Z,25.53
2019-01-30T17:52:44.546Z,25.44
2019-01-30T17:52:45.719Z,25.36
2019-01-30T17:52:46.896Z,25.31
2019-01-30T17:52:48.073Z,25.21
2019-01-30T17:52:49.246Z,25.19
2019-01-30T17:52:50.415Z,25.13
2019-01-30T17:52:51.592Z,25.09
2019-01-30T17:52:52.767Z,25.01
2019-01-30T17:52:53.954Z,24.99
2019-01-30T17:52:55.137Z,24.94
2019-01-30T17:52:56.311Z,24.90
2019-01-30T17:52:57.501Z,24.87
2019-01-30T17:52:58.683Z,24.83
2019-01-30T17:52:59.859Z,24.82
2019-01-30T17:53:01.033Z,24.79
2019-01-30T17:53:02.209Z,25.24
2019-01-30T17:53:03.383Z,25.44
2019-01-30T17:53:04.557Z,25.54
2019-01-30T17:53:05.728Z,25.63
2019-01-30T17:53:06.901Z,25.70
2019-01-30T17:53:08.087Z,25.78
2019-01-30T17:53:09.258Z,25.84
2019-01-30T17:53:10.431Z,25.81
2019-01-30T17:53:11.606Z,25.63
2019-01-30T17:53:12.780Z,25.67
2019-01-30T17:53:13.956Z,25.71
2019-01-30T17:53:15.140Z,25.77
2019-01-30T17:53:16.344Z,25.77
2019-01-30T17:53:17.522Z,25.71
2019-01-30T17:53:18.698Z,25.70
2019-01-30T17:53:19.874Z,25.67
2019-01-30T17:53:21.046Z,25.71
2019-01-30T17:53:22.218Z,25.75
2019-01-30T17:53:23.391Z,25.84
2019-01-30T17:53:24.566Z,25.70
2019-01-30T17:53:25.747Z,25.57
2019-01-30T17:53:26.921Z,25.48
2019-01-30T17:53:28.099Z,25.41
2019-01-30T17:53:29.286Z,25.33
2019-01-30T17:53:30.468Z,25.24
2019-01-30T17:53:31.724Z,25.20
2019-01-30T17:53:32.906Z,25.14
2019-01-30T17:53:34.086Z,25.07
2019-01-30T17:53:35.263Z,25.01
2019-01-30T17:53:36.444Z,24.99
2019-01-30T17:53:37.616Z,24.90
2019-01-30T17:53:38.786Z,24.87
2019-01-30T17:53:39.959Z,24.83
2019-01-30T17:53:41.132Z,24.79
2019-01-30T17:53:42.305Z,24.79
2019-01-30T17:53:43.480Z,24.73
2019-01-30T17:53:44.661Z,24.72
2019-01-30T17:53:45.839Z,24.67
2019-01-30T17:53:47.023Z,24.63
2019-01-30T17:53:48.198Z,24.58
2019-01-30T17:53:49.372Z,24.55
2019-01-30T17:53:50.541Z,24.53
2019-01-30T17:53:51.724Z,24.50
2019-01-30T17:53:52.902Z,24.49
2019-01-30T17:53:54.076Z,24.46
2019-01-30T17:53:55.246Z,24.45
2019-01-30T17:53:56.421Z,24.43
2019-01-30T17:53:57.594Z,24.40
2019-01-30T17:53:58.761Z,24.39
2019-01-30T17:53:59.936Z,24.38
2019-01-30T17:54:01.112Z,24.35
2019-01-30T17:54:02.297Z,24.38
2019-01-30T17:54:03.471Z,24.31
2019-01-30T17:54:04.652Z,24.32
2019-01-30T17:54:05.837Z,24.34
2019-01-30T17:54:07.009Z,24.34
2019-01-30T17:54:08.191Z,24.34
2019-01-30T17:54:09.367Z,24.32
2019-01-30T17:54:10.543Z,24.32
2019-01-30T17:54:11.724Z,24.29
2019-01-30T17:54:12.924Z,24.28
2019-01-30T17:54:14.101Z,24.29
2019-01-30T17:54:18.138Z,24.29
2019-01-30T17:54:19.499Z,24.23
2019-01-30T17:54:20.681Z,24.26
2019-01-30T17:54:21.861Z,24.26
2019-01-30T17:54:23.036Z,24.23
2019-01-30T17:54:24.222Z,24.22
2019-01-30T17:54:25.408Z,24.22
2019-01-30T17:54:26.600Z,24.19
2019-01-30T17:54:27.780Z,24.19
2019-01-30T17:54:28.968Z,24.23
2019-01-30T17:54:30.158Z,24.25
2019-01-30T17:54:31.335Z,24.25
2019-01-30T17:54:32.527Z,24.23
2019-01-30T17:54:33.700Z,24.25
2019-01-30T17:54:34.891Z,24.25
2019-01-30T17:54:36.075Z,24.26
2019-01-30T17:54:37.248Z,24.26
2019-01-30T17:54:41.151Z,24.31
2019-01-30T17:54:42.585Z,24.31
2019-01-30T17:54:43.761Z,24.29
2019-01-30T17:54:44.942Z,24.31
2019-01-30T17:54:46.126Z,24.32
2019-01-30T17:54:47.304Z,24.29
2019-01-30T17:54:48.486Z,24.28
2019-01-30T17:54:49.660Z,24.34
2019-01-30T17:54:50.842Z,24.32
2019-01-30T17:54:52.025Z,24.29
2019-01-30T17:54:53.198Z,24.26
2019-01-30T17:54:54.371Z,24.22
2019-01-30T17:54:55.545Z,24.25
2019-01-30T17:54:56.718Z,24.29
2019-01-30T17:54:57.904Z,24.26
2019-01-30T17:54:59.083Z,24.26
2019-01-30T17:55:00.330Z,24.29
2019-01-30T17:55:04.347Z,24.28
2019-01-30T17:55:05.730Z,24.28
2019-01-30T17:55:06.914Z,24.25
2019-01-30T17:55:08.186Z,24.22
2019-01-30T17:55:09.371Z,24.22
2019-01-30T17:55:10.544Z,24.23
2019-01-30T17:55:11.713Z,24.23
2019-01-30T17:55:12.898Z,24.22
2019-01-30T17:55:14.075Z,24.22
2019-01-30T17:55:15.267Z,24.18
2019-01-30T17:55:16.439Z,24.19
2019-01-30T17:55:17.613Z,24.18
2019-01-30T17:55:18.792Z,24.18
2019-01-30T17:55:19.965Z,24.19
2019-01-30T17:55:21.142Z,24.18
2019-01-30T17:55:22.332Z,24.19
2019-01-30T17:55:26.054Z,24.19
2019-01-30T17:55:27.555Z,24.13
2019-01-30T17:55:28.732Z,24.18
2019-01-30T17:55:29.905Z,24.16
2019-01-30T17:55:31.100Z,24.19
2019-01-30T17:55:32.277Z,24.21
2019-01-30T17:55:33.452Z,24.21
2019-01-30T17:55:34.638Z,24.19
2019-01-30T17:55:35.900Z,24.18
2019-01-30T17:55:37.084Z,24.19
2019-01-30T17:55:38.267Z,24.18
2019-01-30T17:55:39.449Z,24.25
2019-01-30T17:55:40.620Z,24.23
2019-01-30T17:55:41.803Z,24.22
2019-01-30T17:55:42.986Z,24.21
2019-01-30T17:55:44.159Z,24.16
2019-01-30T17:55:45.331Z,24.18
2019-01-30T17:55:46.505Z,24.15
2019-01-30T17:55:47.696Z,24.13
2019-01-30T17:55:48.878Z,24.15
2019-01-30T17:55:50.050Z,24.16
2019-01-30T17:55:51.237Z,24.15
2019-01-30T17:55:52.410Z,24.16
2019-01-30T17:55:53.595Z,24.16
2019-01-30T17:55:54.771Z,24.18
2019-01-30T17:55:55.944Z,24.18
2019-01-30T17:55:57.116Z,24.22
2019-01-30T17:55:58.290Z,24.21
2019-01-30T17:55:59.475Z,24.19
2019-01-30T17:56:00.661Z,24.19
2019-01-30T17:56:01.836Z,24.16
2019-01-30T17:56:03.020Z,24.15
2019-01-30T17:56:04.195Z,24.18
2019-01-30T17:56:05.374Z,24.18
2019-01-30T17:56:06.546Z,24.16
2019-01-30T17:56:07.721Z,24.16
2019-01-30T17:56:08.897Z,24.16
2019-01-30T17:56:10.068Z,24.16
2019-01-30T17:56:11.241Z,24.15
2019-01-30T17:56:12.416Z,24.12
2019-01-30T17:56:13.596Z,24.13
2019-01-30T17:56:14.778Z,24.11
2019-01-30T17:56:16.056Z,24.12
2019-01-30T17:56:17.249Z,24.12
2019-01-30T17:56:18.420Z,24.12
2019-01-30T17:56:19.592Z,24.09
2019-01-30T17:56:20.766Z,24.12
2019-01-30T17:56:21.948Z,24.12
2019-01-30T17:56:23.119Z,24.11
2019-01-30T17:56:24.295Z,24.13
2019-01-30T17:56:25.487Z,24.13
2019-01-30T17:56:26.659Z,24.13
2019-01-30T17:56:27.837Z,24.13
2019-01-30T17:56:29.013Z,24.13
2019-01-30T17:56:30.201Z,24.15
2019-01-30T17:56:31.375Z,24.13
2019-01-30T17:56:32.546Z,24.12
2019-01-30T17:56:33.722Z,24.13
2019-01-30T17:56:34.900Z,24.15
2019-01-30T17:56:36.076Z,24.11
2019-01-30T17:56:37.249Z,24.11
2019-01-30T17:56:38.431Z,24.12
2019-01-30T17:56:39.623Z,24.12
2019-01-30T17:56:40.801Z,24.09
2019-01-30T17:56:41.977Z,24.09
2019-01-30T17:56:43.169Z,24.11
2019-01-30T17:56:44.343Z,24.11
2019-01-30T17:56:45.515Z,24.11
2019-01-30T17:56:46.697Z,24.13
2019-01-30T17:56:47.870Z,24.15
2019-01-30T17:56:49.044Z,24.18
2019-01-30T17:56:50.228Z,24.25
2019-01-30T17:56:51.403Z,24.23
2019-01-30T17:56:52.582Z,24.23
2019-01-30T17:56:53.801Z,24.22
2019-01-30T17:56:54.988Z,24.22
2019-01-30T17:56:56.162Z,24.22
2019-01-30T17:56:57.340Z,24.21
2019-01-30T17:56:58.509Z,24.21
2019-01-30T17:56:59.682Z,24.18
2019-01-30T17:57:00.854Z,24.13
2019-01-30T17:57:02.091Z,24.16
2019-01-30T17:57:03.273Z,24.15
2019-01-30T17:57:04.446Z,24.18
2019-01-30T17:57:05.623Z,24.16
2019-01-30T17:57:06.806Z,24.13
2019-01-30T17:57:07.990Z,24.15
2019-01-30T17:57:09.168Z,24.15
2019-01-30T17:57:10.337Z,24.11
2019-01-30T17:57:11.521Z,24.11
2019-01-30T17:57:12.697Z,24.11
2019-01-30T17:57:13.874Z,24.12
2019-01-30T17:57:15.054Z,24.15
2019-01-30T17:57:16.228Z,24.13
2019-01-30T17:57:17.400Z,24.15
2019-01-30T17:57:18.574Z,24.13
2019-01-30T17:57:19.749Z,24.15
2019-01-30T17:57:20.924Z,24.16
2019-01-30T17:57:22.100Z,24.18
2019-01-30T17:57:23.276Z,24.19
2019-01-30T17:57:24.450Z,24.15
2019-01-30T17:57:25.624Z,24.13
2019-01-30T17:57:26.799Z,24.12
2019-01-30T17:57:27.981Z,24.13
2019-01-30T17:57:29.155Z,24.12
2019-01-30T17:57:30.341Z,24.09
2019-01-30T17:57:31.515Z,24.09
2019-01-30T17:57:32.690Z,24.06
2019-01-30T17:57:33.860Z,24.06
2019-01-30T17:57:35.035Z,24.08
2019-01-30T17:57:36.238Z,24.03
2019-01-30T17:57:37.417Z,24.05
2019-01-30T17:57:38.596Z,24.05
2019-01-30T17:57:39.773Z,24.05
2019-01-30T17:57:40.948Z,24.01
2019-01-30T17:57:42.130Z,24.02
2019-01-30T17:57:43.308Z,24.01
2019-01-30T17:57:44.480Z,24.01
2019-01-30T17:57:45.651Z,24.01
2019-01-30T17:57:46.827Z,24.01
2019-01-30T17:57:48.003Z,24.01
2019-01-30T17:57:49.177Z,24.03
2019-01-30T17:57:50.349Z,24.02
2019-01-30T17:57:51.517Z,24.02
2019-01-30T17:57:52.702Z,24.02
2019-01-30T17:57:53.879Z,24.06
2019-01-30T17:57:55.058Z,24.05
2019-01-30T17:57:56.232Z,24.06
2019-01-30T17:57:57.412Z,24.05
2019-01-30T17:57:58.595Z,24.06
2019-01-30T17:57:59.772Z,24.03
2019-01-30T17:58:00.952Z,24.03
2019-01-30T17:58:02.133Z,24.03
2019-01-30T17:58:03.304Z,24.03
2019-01-30T17:58:04.475Z,24.02
2019-01-30T17:58:05.654Z,24.02
2019-01-30T17:58:06.829Z,24.01
2019-01-30T17:58:08.025Z,24.01
2019-01-30T17:58:09.216Z,23.99
2019-01-30T17:58:10.394Z,23.99
2019-01-30T17:58:11.570Z,23.98
2019-01-30T17:58:12.754Z,23.96
2019-01-30T17:58:13.928Z,23.95
2019-01-30T17:58:15.110Z,23.96
2019-01-30T17:58:16.294Z,23.96
2019-01-30T17:58:17.477Z,24.02
2019-01-30T17:58:18.660Z,24.02
2019-01-30T17:58:19.837Z,24.05
2019-01-30T17:58:21.012Z,24.06
2019-01-30T17:58:22.186Z,24.06
2019-01-30T17:58:23.377Z,24.09
2019-01-30T17:58:24.565Z,24.11
2019-01-30T17:58:25.737Z,24.18
2019-01-30T17:58:26.917Z,24.18
2019-01-30T17:58:28.100Z,24.15
2019-01-30T17:58:29.293Z,24.16
2019-01-30T17:58:30.474Z,24.21
2019-01-30T17:58:34.301Z,24.22
2019-01-30T17:58:35.643Z,24.25
2019-01-30T17:58:36.824Z,24.25
2019-01-30T17:58:38.039Z,24.25
2019-01-30T17:58:39.226Z,24.26
2019-01-30T17:58:40.405Z,24.23
2019-01-30T17:58:41.581Z,24.23
2019-01-30T17:58:42.764Z,24.19
2019-01-30T17:58:43.939Z,24.22
2019-01-30T17:58:45.115Z,24.18
2019-01-30T17:58:46.307Z,24.15
2019-01-30T17:58:47.480Z,24.15
2019-01-30T17:58:48.663Z,24.12
2019-01-30T17:58:49.842Z,24.15
2019-01-30T17:58:51.014Z,24.18
2019-01-30T17:58:52.192Z,24.16
2019-01-30T17:58:53.365Z,24.19
2019-01-30T17:58:54.537Z,24.25
2019-01-30T17:58:55.735Z,24.28
2019-01-30T17:58:56.912Z,24.28
2019-01-30T17:58:58.101Z,24.28
2019-01-30T17:58:59.285Z,24.29
2019-01-30T17:59:00.466Z,24.25
2019-01-30T17:59:01.772Z,24.26
2019-01-30T17:59:02.959Z,24.22
2019-01-30T17:59:04.133Z,24.21
2019-01-30T17:59:05.306Z,24.19
2019-01-30T17:59:06.476Z,24.18
2019-01-30T17:59:07.649Z,24.19
2019-01-30T17:59:08.822Z,24.22
2019-01-30T17:59:09.996Z,24.26
2019-01-30T17:59:11.169Z,24.22
2019-01-30T17:59:12.356Z,24.26
2019-01-30T17:59:13.535Z,24.23
2019-01-30T17:59:14.828Z,24.26
2019-01-30T17:59:16.007Z,24.26
2019-01-30T17:59:17.180Z,24.28
2019-01-30T17:59:18.355Z,24.26
2019-01-30T17:59:19.529Z,24.23
2019-01-30T17:59:20.710Z,24.23
2019-01-30T17:59:21.891Z,24.25
2019-01-30T17:59:23.069Z,24.21
2019-01-30T17:59:24.246Z,24.19
2019-01-30T17:59:25.429Z,24.23
2019-01-30T17:59:26.604Z,24.23
2019-01-30T17:59:27.779Z,24.22
2019-01-30T17:59:28.954Z,24.26
2019-01-30T17:59:30.138Z,24.25
2019-01-30T17:59:31.309Z,24.26
2019-01-30T17:59:32.482Z,24.25
2019-01-30T17:59:33.659Z,24.28
2019-01-30T17:59:34.837Z,24.29
2019-01-30T17:59:36.021Z,24.32
2019-01-30T17:59:37.209Z,24.29
2019-01-30T17:59:38.390Z,24.31
2019-01-30T17:59:39.581Z,24.28
2019-01-30T17:59:40.760Z,24.26
2019-01-30T17:59:41.934Z,24.22
2019-01-30T17:59:43.147Z,24.21
2019-01-30T17:59:44.332Z,24.26
2019-01-30T17:59:45.507Z,24.28
2019-01-30T17:59:46.690Z,24.31
2019-01-30T17:59:47.873Z,24.31
2019-01-30T17:59:49.051Z,24.35
2019-01-30T17:59:50.228Z,24.34
2019-01-30T17:59:53.311Z,24.36
2019-01-30T17:59:54.666Z,24.38
2019-01-30T17:59:55.845Z,24.38
2019-01-30T17:59:57.031Z,24.40
2019-01-30T17:59:58.214Z,24.40
2019-01-30T17:59:59.387Z,24.40
2019-01-30T18:00:00.564Z,24.40
2019-01-30T18:00:01.748Z,24.39
2019-01-30T18:00:02.932Z,24.39
2019-01-30T18:00:04.117Z,24.39
2019-01-30T18:00:05.295Z,24.39
2019-01-30T18:00:06.467Z,24.39
2019-01-30T18:00:07.647Z,24.39
2019-01-30T18:00:08.832Z,24.39
2019-01-30T18:00:10.009Z,24.38
2019-01-30T18:00:11.190Z,24.39
2019-01-30T18:00:12.367Z,24.39
2019-01-30T18:00:16.462Z,24.39
2019-01-30T18:00:17.895Z,24.40
2019-01-30T18:00:19.078Z,24.39
2019-01-30T18:00:20.254Z,24.40
2019-01-30T18:00:21.441Z,24.40
2019-01-30T18:00:22.618Z,24.40
2019-01-30T18:00:23.802Z,24.39
2019-01-30T18:00:24.981Z,24.38
2019-01-30T18:00:26.166Z,24.39
2019-01-30T18:00:27.350Z,24.35
2019-01-30T18:00:28.544Z,24.40
2019-01-30T18:00:29.718Z,24.40
2019-01-30T18:00:30.900Z,24.39
2019-01-30T18:00:32.082Z,24.39
2019-01-30T18:00:33.261Z,24.38
2019-01-30T18:00:34.439Z,24.36
2019-01-30T18:00:35.616Z,24.36
2019-01-30T18:00:36.790Z,24.36
2019-01-30T18:00:37.978Z,24.36
2019-01-30T18:00:39.166Z,24.34
2019-01-30T18:00:40.347Z,24.34
2019-01-30T18:00:41.519Z,24.34
2019-01-30T18:00:42.697Z,24.34
2019-01-30T18:00:46.617Z,24.35
2019-01-30T18:00:48.114Z,24.38
2019-01-30T18:00:49.296Z,24.34
2019-01-30T18:00:50.483Z,24.36
2019-01-30T18:00:51.693Z,24.34
2019-01-30T18:00:52.870Z,24.35
2019-01-30T18:00:54.048Z,24.34
2019-01-30T18:00:55.233Z,24.29
2019-01-30T18:00:56.410Z,24.32
2019-01-30T18:00:57.583Z,24.26
2019-01-30T18:00:58.754Z,24.25
2019-01-30T18:00:59.935Z,24.26
2019-01-30T18:01:01.110Z,24.29
2019-01-30T18:01:02.289Z,24.26
2019-01-30T18:01:03.474Z,24.25
2019-01-30T18:01:04.648Z,24.28
2019-01-30T18:01:05.834Z,24.23
2019-01-30T18:01:07.158Z,24.23
2019-01-30T18:01:08.353Z,24.23
2019-01-30T18:01:09.528Z,24.23
2019-01-30T18:01:10.713Z,24.25
2019-01-30T18:01:11.913Z,24.23
2019-01-30T18:01:13.166Z,24.23
2019-01-30T18:01:14.347Z,24.23
2019-01-30T18:01:15.521Z,24.23
2019-01-30T18:01:16.708Z,24.21
2019-01-30T18:01:17.885Z,24.18
2019-01-30T18:01:19.069Z,24.18
2019-01-30T18:01:20.254Z,24.16
2019-01-30T18:01:21.436Z,24.18
2019-01-30T18:01:22.721Z,24.16
2019-01-30T18:01:23.894Z,24.21
2019-01-30T18:01:25.082Z,24.23
2019-01-30T18:01:26.260Z,24.21
2019-01-30T18:01:27.438Z,24.19
2019-01-30T18:01:28.616Z,24.21
2019-01-30T18:01:29.801Z,24.22
2019-01-30T18:01:30.974Z,24.21
2019-01-30T18:01:32.152Z,24.21
2019-01-30T18:01:33.343Z,24.22
2019-01-30T18:01:34.512Z,24.22
2019-01-30T18:01:35.688Z,24.23
2019-01-30T18:01:36.861Z,24.23
2019-01-30T18:01:38.032Z,24.25
2019-01-30T18:01:39.210Z,24.22
2019-01-30T18:01:40.382Z,24.22
2019-01-30T18:01:41.547Z,24.22
2019-01-30T18:01:42.722Z,24.22
2019-01-30T18:01:43.907Z,24.25
2019-01-30T18:01:45.093Z,24.23
2019-01-30T18:01:46.268Z,24.22
2019-01-30T18:01:47.455Z,24.21
2019-01-30T18:01:48.629Z,24.22
2019-01-30T18:01:49.808Z,24.22
2019-01-30T18:01:50.982Z,24.21
2019-01-30T18:01:52.153Z,24.16
2019-01-30T18:01:53.329Z,24.18
2019-01-30T18:01:54.541Z,24.21
2019-01-30T18:01:55.716Z,24.21
2019-01-30T18:01:56.889Z,24.22
2019-01-30T18:01:58.065Z,24.23
2019-01-30T18:01:59.252Z,24.22
2019-01-30T18:02:00.428Z,24.19
2019-01-30T18:02:01.599Z,24.18
2019-01-30T18:02:02.776Z,24.19
2019-01-30T18:02:03.950Z,24.18
2019-01-30T18:02:05.131Z,24.16
2019-01-30T18:02:06.313Z,24.19
2019-01-30T18:02:07.498Z,24.18
2019-01-30T18:02:08.674Z,24.19
2019-01-30T18:02:09.857Z,24.21
2019-01-30T18:02:11.059Z,24.21
2019-01-30T18:02:12.247Z,24.23
2019-01-30T18:02:13.426Z,24.23
2019-01-30T18:02:14.602Z,24.21
2019-01-30T18:02:15.776Z,24.21
2019-01-30T18:02:16.958Z,24.22
2019-01-30T18:02:18.211Z,24.19
2019-01-30T18:02:19.392Z,24.15
2019-01-30T18:02:20.573Z,24.21
2019-01-30T18:02:21.750Z,24.18
2019-01-30T18:02:22.923Z,24.19
2019-01-30T18:02:24.098Z,24.18
2019-01-30T18:02:25.272Z,24.19
2019-01-30T18:02:26.446Z,24.16
2019-01-30T18:02:27.620Z,24.18
2019-01-30T18:02:28.790Z,24.18
2019-01-30T18:02:29.963Z,24.18
2019-01-30T18:02:31.149Z,24.19
2019-01-30T18:02:32.323Z,24.18
2019-01-30T18:02:33.496Z,24.18
2019-01-30T18:02:34.671Z,24.18
2019-01-30T18:02:35.868Z,24.21
2019-01-30T18:02:37.040Z,24.21
2019-01-30T18:02:38.222Z,24.22
2019-01-30T18:02:39.406Z,24.23
2019-01-30T18:02:40.584Z,24.25
2019-01-30T18:02:41.783Z,24.25
2019-01-30T18:02:42.974Z,24.22
2019-01-30T18:02:44.279Z,24.22
2019-01-30T18:02:45.467Z,24.21
2019-01-30T18:02:46.654Z,24.21
2019-01-30T18:02:47.830Z,24.18
2019-01-30T18:02:49.008Z,24.19
2019-01-30T18:02:50.185Z,24.15
2019-01-30T18:02:51.358Z,24.15
2019-01-30T18:02:52.531Z,24.18
2019-01-30T18:02:53.710Z,24.21
2019-01-30T18:02:54.883Z,24.21
2019-01-30T18:02:56.054Z,24.18
2019-01-30T18:02:57.251Z,24.16
2019-01-30T18:02:58.424Z,24.19
2019-01-30T18:02:59.594Z,24.18
2019-01-30T18:03:00.769Z,24.18
2019-01-30T18:03:01.943Z,24.13
2019-01-30T18:03:03.122Z,24.21
2019-01-30T18:03:04.308Z,24.19
2019-01-30T18:03:05.500Z,24.21
2019-01-30T18:03:06.685Z,24.22
2019-01-30T18:03:07.856Z,24.23
2019-01-30T18:03:09.029Z,24.29
2019-01-30T18:03:10.188Z,24.29
2019-01-30T18:03:11.346Z,24.29
2019-01-30T18:03:12.510Z,24.29
2019-01-30T18:03:13.675Z,24.29
2019-01-30T18:03:14.840Z,24.29
2019-01-30T18:03:16.007Z,24.29
2019-01-30T18:03:17.165Z,24.29
2019-01-30T18:03:18.322Z,24.29
2019-01-30T18:03:19.483Z,24.29
2019-01-30T18:03:20.638Z,24.29
2019-01-30T18:03:21.803Z,24.29
2019-01-30T18:03:22.964Z,24.29
2019-01-30T18:03:24.140Z,24.29
2019-01-30T18:03:25.306Z,24.29
2019-01-30T18:03:26.470Z,24.29
2019-01-30T18:03:27.628Z,24.29
2019-01-30T18:03:28.789Z,24.29
2019-01-30T18:03:29.950Z,24.29
2019-01-30T18:03:31.120Z,24.29
2019-01-30T18:03:32.290Z,24.29
2019-01-30T18:03:33.460Z,24.29
2019-01-30T18:03:34.617Z,24.29
2019-01-30T18:03:35.786Z,24.29
2019-01-30T18:03:36.946Z,24.29
2019-01-30T18:03:38.108Z,24.29
2019-01-30T18:03:39.268Z,24.29
2019-01-30T18:03:40.424Z,24.29
2019-01-30T18:03:41.582Z,24.29
2019-01-30T18:03:42.742Z,24.29
2019-01-30T18:03:43.907Z,24.29
2019-01-30T18:03:45.072Z,24.29
2019-01-30T18:03:46.227Z,24.29
2019-01-30T18:03:47.388Z,24.29
2019-01-30T18:03:48.546Z,24.29
2019-01-30T18:03:49.715Z,24.29
2019-01-30T18:03:50.873Z,24.29
2019-01-30T18:03:52.034Z,24.29
2019-01-30T18:03:53.187Z,24.29
2019-01-30T18:03:54.349Z,24.29
2019-01-30T18:03:55.512Z,24.29
2019-01-30T18:03:56.669Z,24.29
2019-01-30T18:03:57.828Z,24.29
2019-01-30T18:03:58.989Z,24.29
2019-01-30T18:04:00.148Z,24.29
2019-01-30T18:04:01.312Z,24.29
2019-01-30T18:04:02.490Z,24.29
2019-01-30T18:04:03.654Z,24.29
2019-01-30T18:04:04.820Z,24.29
2019-01-30T18:04:05.991Z,24.29
2019-01-30T18:04:07.164Z,24.29
2019-01-30T18:04:08.344Z,24.29
2019-01-30T18:04:09.516Z,24.29
2019-01-30T18:04:10.672Z,24.29
2019-01-30T18:04:11.832Z,24.29
2019-01-30T18:04:12.988Z,24.29
2019-01-30T18:04:14.145Z,24.29
2019-01-30T18:04:15.311Z,24.29
2019-01-30T18:04:16.468Z,24.29
2019-01-30T18:04:17.631Z,24.29
2019-01-30T18:04:18.790Z,24.29
2019-01-30T18:04:19.950Z,24.29
2019-01-30T18:04:21.106Z,24.29
2019-01-30T18:04:22.272Z,24.29
2019-01-30T18:04:23.442Z,24.29
2019-01-30T18:04:24.600Z,24.29
2019-01-30T18:04:25.772Z,24.29
2019-01-30T18:04:26.929Z,24.29
2019-01-30T18:04:28.091Z,24.29
2019-01-30T18:04:29.253Z,24.29
2019-01-30T18:04:30.413Z,24.29
2019-01-30T18:04:31.572Z,24.29
2019-01-30T18:04:32.731Z,24.29
2019-01-30T18:04:33.892Z,24.29
2019-01-30T18:04:35.054Z,24.29
2019-01-30T18:04:36.218Z,24.29
2019-01-30T18:04:37.374Z,24.29
2019-01-30T18:04:38.535Z,24.29
2019-01-30T18:04:39.699Z,24.29
2019-01-30T18:04:40.862Z,24.29
2019-01-30T18:04:42.020Z,24.29
2019-01-30T18:04:43.205Z,24.29
2019-01-30T18:04:44.364Z,24.29
2019-01-30T18:04:45.521Z,24.29
2019-01-30T18:04:46.680Z,24.29
2019-01-30T18:04:47.849Z,24.29
2019-01-30T18:04:49.017Z,24.29
2019-01-30T18:04:50.184Z,24.29
2019-01-30T18:04:51.346Z,24.29
2019-01-30T18:04:52.513Z,24.29
2019-01-30T18:04:53.676Z,24.29
2019-01-30T18:04:54.838Z,24.29
2019-01-30T18:04:55.998Z,24.29
2019-01-30T18:04:59.239Z,24.29
2019-01-30T18:05:00.518Z,24.29
2019-01-30T18:05:01.678Z,24.29
2019-01-30T18:05:02.836Z,24.29
2019-01-30T18:05:03.995Z,24.29
2019-01-30T18:05:05.152Z,24.29
2019-01-30T18:05:06.310Z,24.29
2019-01-30T18:05:07.466Z,24.29
2019-01-30T18:05:08.633Z,24.29
2019-01-30T18:05:09.799Z,24.29
2019-01-30T18:05:10.964Z,24.29
2019-01-30T18:05:12.129Z,24.29
2019-01-30T18:05:13.292Z,24.29
2019-01-30T18:05:14.449Z,24.29
2019-01-30T18:05:15.614Z,24.29
2019-01-30T18:05:16.829Z,24.29
2019-01-30T18:05:17.994Z,24.29
2019-01-30T18:05:19.174Z,24.29
2019-01-30T18:05:20.331Z,24.29
2019-01-30T18:05:21.492Z,24.29
2019-01-30T18:05:22.660Z,24.29
2019-01-30T18:05:23.821Z,24.29
2019-01-30T18:05:24.981Z,24.29
2019-01-30T18:05:26.141Z,24.29
2019-01-30T18:05:27.304Z,24.29
2019-01-30T18:05:28.474Z,24.29
2019-01-30T18:05:29.642Z,24.29
2019-01-30T18:05:30.799Z,24.29
2019-01-30T18:05:31.956Z,24.29
2019-01-30T18:05:33.121Z,24.29
2019-01-30T18:05:34.286Z,24.29
2019-01-30T18:05:35.448Z,24.29
2019-01-30T18:05:36.605Z,24.29
2019-01-30T18:05:37.763Z,24.29
2019-01-30T18:05:38.922Z,24.29
2019-01-30T18:05:40.085Z,24.29
2019-01-30T18:05:41.241Z,24.29
2019-01-30T18:05:42.402Z,24.29
2019-01-30T18:05:43.569Z,24.29
2019-01-30T18:05:44.727Z,24.29
2019-01-30T18:05:45.891Z,24.29
2019-01-30T18:05:47.051Z,24.29
2019-01-30T18:05:48.222Z,24.29
2019-01-30T18:05:49.387Z,24.29
2019-01-30T18:05:50.649Z,24.29
2019-01-30T18:05:51.823Z,24.29
2019-01-30T18:05:52.984Z,24.29
2019-01-30T18:05:54.159Z,24.29
2019-01-30T18:05:55.316Z,24.29
2019-01-30T18:05:56.479Z,24.29
2019-01-30T18:05:57.644Z,24.29
2019-01-30T18:05:58.800Z,24.29
2019-01-30T18:05:59.961Z,24.29
2019-01-30T18:06:01.120Z,24.29
2019-01-30T18:06:02.277Z,24.29
2019-01-30T18:06:03.561Z,24.29
2019-01-30T18:06:04.739Z,24.29
2019-01-30T18:06:05.903Z,24.29
2019-01-30T18:06:07.074Z,24.29
2019-01-30T18:06:08.239Z,24.29
2019-01-30T18:06:09.414Z,24.29
2019-01-30T18:06:12.893Z,24.29
2019-01-30T18:06:14.239Z,24.29
2019-01-30T18:06:15.418Z,24.29
2019-01-30T18:06:16.586Z,24.29
2019-01-30T18:06:29.257Z,24.29
2019-01-30T18:06:30.097Z,24.29
2019-01-30T18:06:32.055Z,24.29
2019-01-30T18:06:33.216Z,24.29
2019-01-30T18:06:34.378Z,24.29
2019-01-30T18:06:35.542Z,24.29
2019-01-30T18:06:36.745Z,24.29
2019-01-30T18:06:37.905Z,24.29